Time;durP1;ratioP1;P1;durP2;ratioP2;P2;SDS_P1;SDS_P2;PMS_P1;PMS_P2;Temp;Humidity;BMP_temperature;BMP_pressure;BME280_temperature;BME280_humidity;BME280_pressure;Samples;Min_cycle;Max_cycle;Signal;HPM_P1;HPM_P2
2021/09/15 00:02:25;;;;;;;5.50;3.72;;;;;;;21.65;65.56;100938.63;5080324;28;20031;-54
2021/09/15 00:04:50;;;;;;;5.90;3.30;;;;;;;21.62;65.33;100933.66;5075463;28;20020;-57
2021/09/15 00:07:16;;;;;;;6.50;3.85;;;;;;;21.65;65.71;100940.56;5079611;28;20020;-56
2021/09/15 00:09:41;;;;;;;5.78;3.88;;;;;;;21.65;65.36;100943.28;5078868;28;20021;-57
2021/09/15 00:12:07;;;;;;;6.05;3.53;;;;;;;21.65;65.31;100940.56;5086554;28;20077;-54
2021/09/15 00:14:33;;;;;;;7.07;4.03;;;;;;;21.64;65.53;100942.44;5077386;28;20063;-56
2021/09/15 00:16:58;;;;;;;5.75;3.88;;;;;;;21.64;65.34;100945.16;5085681;28;20016;-57
2021/09/15 00:19:24;;;;;;;5.15;3.97;;;;;;;21.65;65.53;100943.28;5075874;28;20028;-57
2021/09/15 00:21:49;;;;;;;5.63;3.70;;;;;;;21.64;65.12;100947.09;5079500;28;20028;-58
2021/09/15 00:24:15;;;;;;;5.50;3.20;;;;;;;21.64;65.31;100949.81;5086507;28;20027;-57
2021/09/15 00:26:41;;;;;;;6.95;3.97;;;;;;;21.63;65.40;100951.72;5082825;28;20026;-55
2021/09/15 00:29:10;;;;;;;7.13;3.75;;;;;;;21.64;65.11;100952.56;5074557;28;20020;-56
2021/09/15 00:31:36;;;;;;;5.20;3.50;;;;;;;21.62;65.53;100952.81;5078322;28;20394;-57
2021/09/15 00:34:02;;;;;;;5.50;3.40;;;;;;;21.64;65.51;100952.56;5084007;28;20462;-57
2021/09/15 00:36:27;;;;;;;5.85;3.42;;;;;;;21.62;65.10;100950.06;5080100;28;20444;-57
2021/09/15 00:38:53;;;;;;;5.78;3.60;;;;;;;21.62;65.09;100952.81;5075392;28;20024;-57
2021/09/15 00:41:19;;;;;;;5.78;3.30;;;;;;;21.63;65.30;100950.91;5078448;28;20101;-55
2021/09/15 00:44:08;;;;;;;7.50;3.45;;;;;;;21.63;65.27;100949.00;5079341;28;20021;-58
2021/09/15 00:46:34;;;;;;;6.13;3.25;;;;;;;21.62;65.27;100947.34;5081522;28;20106;-58
2021/09/15 00:49:00;;;;;;;6.03;3.40;;;;;;;21.63;65.17;100948.16;5079886;28;20024;-57
2021/09/15 00:51:26;;;;;;;6.55;3.95;;;;;;;21.62;65.18;100943.75;5081048;28;20032;-57
2021/09/15 00:53:52;;;;;;;5.30;3.47;;;;;;;21.62;65.21;100943.75;5077419;28;20025;-57
2021/09/15 00:56:18;;;;;;;6.45;3.50;;;;;;;21.62;65.39;100943.75;5077904;28;20048;-58
2021/09/15 00:58:44;;;;;;;5.63;3.30;;;;;;;21.61;65.33;100940.19;5082139;28;20020;-58
2021/09/15 01:01:09;;;;;;;5.35;3.30;;;;;;;21.61;65.43;100942.09;5073785;28;20127;-56
2021/09/15 01:03:35;;;;;;;6.47;3.35;;;;;;;21.61;64.96;100950.31;5081256;28;20024;-55
2021/09/15 01:06:00;;;;;;;6.75;3.53;;;;;;;21.62;65.00;100946.50;5081115;28;20028;-58
2021/09/15 01:08:27;;;;;;;4.38;3.20;;;;;;;21.61;65.09;100939.38;5083351;28;20092;-58
2021/09/15 01:10:53;;;;;;;4.78;3.83;;;;;;;21.59;65.29;100934.13;5076618;28;20028;-57
2021/09/15 01:13:20;;;;;;;5.53;3.10;;;;;;;21.61;65.29;100936.63;5076092;28;20023;-58
2021/09/15 01:15:51;;;;;;;4.85;3.40;;;;;;;21.61;65.47;100939.38;5078968;28;20032;-58
2021/09/15 01:18:18;;;;;;;6.55;3.10;;;;;;;21.59;65.03;100931.38;5084810;28;20024;-57
2021/09/15 01:20:44;;;;;;;7.50;3.58;;;;;;;21.59;65.21;100930.56;5085721;28;20103;-56
2021/09/15 01:23:09;;;;;;;4.47;2.97;;;;;;;21.60;65.33;100930.34;5089443;28;20022;-54
2021/09/15 01:25:35;;;;;;;5.70;3.45;;;;;;;21.61;65.22;100933.91;5084696;28;20024;-58
2021/09/15 01:28:01;;;;;;;5.93;3.22;;;;;;;21.60;65.27;100926.78;5086703;28;20549;-57
2021/09/15 01:30:26;;;;;;;6.18;3.40;;;;;;;21.60;65.22;100926.78;5078766;28;20467;-57
2021/09/15 01:32:52;;;;;;;4.82;2.97;;;;;;;21.59;65.40;100920.44;5085121;28;20034;-56
2021/09/15 01:35:17;;;;;;;5.10;2.97;;;;;;;21.60;65.21;100924.03;5088905;28;20016;-57
2021/09/15 01:37:43;;;;;;;4.70;3.03;;;;;;;21.59;65.29;100925.91;5085657;28;20016;-58
2021/09/15 01:40:09;;;;;;;4.60;2.90;;;;;;;21.58;65.25;100913.31;5080807;28;20016;-57
2021/09/15 01:42:36;;;;;;;5.50;3.40;;;;;;;21.59;65.03;100925.91;5086928;28;20043;-57
2021/09/15 01:45:04;;;;;;;4.60;3.20;;;;;;;21.58;65.11;100924.25;5077005;28;20024;-57
2021/09/15 01:47:30;;;;;;;4.72;3.25;;;;;;;21.59;65.07;100922.34;5077654;28;20077;-56
2021/09/15 01:49:56;;;;;;;6.95;3.28;;;;;;;21.59;65.52;100925.09;5084737;28;20012;-57
2021/09/15 01:52:21;;;;;;;5.82;3.13;;;;;;;21.58;65.09;100923.44;5081473;28;20043;-57
2021/09/15 01:54:47;;;;;;;6.32;3.60;;;;;;;21.58;65.28;100923.44;5082110;28;20097;-57
2021/09/15 01:57:13;;;;;;;4.63;2.97;;;;;;;21.57;65.12;100916.31;5088759;28;20016;-57
2021/09/15 01:59:39;;;;;;;5.25;2.85;;;;;;;21.58;65.07;100916.06;5080134;28;20086;-58
2021/09/15 02:02:04;;;;;;;4.90;3.35;;;;;;;21.58;65.39;100923.44;5086449;28;20493;-57
2021/09/15 02:04:30;;;;;;;5.38;3.30;;;;;;;21.57;65.17;100919.88;5078061;28;20020;-58
2021/09/15 02:06:56;;;;;;;4.38;2.80;;;;;;;21.58;65.13;100920.72;5086007;28;20039;-57
2021/09/15 02:09:22;;;;;;;5.07;3.10;;;;;;;21.58;64.94;100917.97;5083333;28;20028;-58
2021/09/15 02:11:47;;;;;;;4.88;3.13;;;;;;;21.57;65.10;100921.78;5085668;28;20075;-57
2021/09/15 02:14:13;;;;;;;5.43;3.17;;;;;;;21.57;65.13;100913.59;5081076;28;20073;-57
2021/09/15 02:16:39;;;;;;;4.75;2.65;;;;;;;21.57;65.37;100917.16;5084373;28;20024;-57
2021/09/15 02:19:05;;;;;;;5.13;3.28;;;;;;;21.58;65.07;100917.97;5076722;28;20012;-57
2021/09/15 02:21:31;;;;;;;4.03;2.88;;;;;;;21.57;65.14;100917.16;5079114;28;20031;-58
2021/09/15 02:23:57;;;;;;;5.50;2.95;;;;;;;21.57;65.36;100925.34;5084712;28;20591;-57
2021/09/15 02:26:23;;;;;;;7.80;2.97;;;;;;;21.56;65.07;100920.94;5086485;28;20024;-57
2021/09/15 02:28:48;;;;;;;5.35;3.03;;;;;;;21.57;65.36;100924.53;5074497;28;20025;-57
2021/09/15 02:31:14;;;;;;;6.95;3.13;;;;;;;21.56;65.24;100926.41;5082994;28;20023;-57
2021/09/15 02:33:40;;;;;;;5.35;3.08;;;;;;;21.56;65.24;100925.59;5084304;28;20151;-56
2021/09/15 02:36:05;;;;;;;4.55;2.72;;;;;;;21.57;65.30;100927.25;5079348;28;20074;-57
2021/09/15 02:38:31;;;;;;;5.18;3.20;;;;;;;21.56;65.31;100925.59;5080044;28;20027;-55
2021/09/15 02:40:57;;;;;;;5.22;3.35;;;;;;;21.57;65.05;100930.00;5088279;28;20054;-55
2021/09/15 02:43:22;;;;;;;5.28;3.03;;;;;;;21.56;65.18;100928.31;5080726;28;20028;-58
2021/09/15 02:45:48;;;;;;;5.80;3.45;;;;;;;21.56;65.17;100931.06;5086445;28;20658;-55
2021/09/15 02:48:14;;;;;;;4.85;3.00;;;;;;;21.55;64.97;100932.97;5079919;28;20379;-56
2021/09/15 02:50:39;;;;;;;5.68;3.40;;;;;;;21.56;65.03;100933.78;5084156;28;20049;-56
2021/09/15 02:53:05;;;;;;;5.50;3.38;;;;;;;21.56;65.11;100933.78;5080892;28;20364;-57
2021/09/15 02:55:31;;;;;;;4.78;3.17;;;;;;;21.52;65.04;100928.00;5085065;28;20023;-57
2021/09/15 02:57:59;;;;;;;6.05;3.38;;;;;;;21.55;64.87;100941.19;5081413;28;20696;-57
2021/09/15 03:00:24;;;;;;;4.20;3.03;;;;;;;21.54;65.27;100936.78;5084390;28;20024;-57
2021/09/15 03:02:50;;;;;;;6.72;2.95;;;;;;;21.54;64.91;100939.53;5079135;28;20391;-57
2021/09/15 03:05:15;;;;;;;7.10;3.13;;;;;;;21.56;64.98;100939.25;5082826;28;20510;-57
2021/09/15 03:07:41;;;;;;;4.22;2.60;;;;;;;21.55;65.05;100934.88;5084784;28;20075;-57
2021/09/15 03:10:08;;;;;;;5.13;2.88;;;;;;;21.54;64.75;100936.78;5078086;28;20379;-57
2021/09/15 03:12:34;;;;;;;5.00;2.80;;;;;;;21.54;64.65;100931.31;5080257;28;20029;-57
2021/09/15 03:14:59;;;;;;;6.55;3.13;;;;;;;21.54;64.81;100936.78;5071733;28;20024;-57
2021/09/15 03:17:25;;;;;;;6.03;3.20;;;;;;;21.55;64.77;100937.63;5081611;28;20021;-57
2021/09/15 03:19:51;;;;;;;7.00;2.72;;;;;;;21.54;64.83;100938.69;5086624;28;20035;-56
2021/09/15 03:22:16;;;;;;;4.85;2.95;;;;;;;21.54;64.70;100938.69;5081177;28;20021;-58
2021/09/15 03:24:42;;;;;;;4.72;2.90;;;;;;;21.52;64.99;100928.81;5084180;28;20046;-58
2021/09/15 03:27:08;;;;;;;5.05;2.88;;;;;;;21.54;65.07;100936.78;5083493;28;20033;-57
2021/09/15 03:29:34;;;;;;;6.43;3.20;;;;;;;21.53;64.69;100932.38;5084068;28;20032;-57
2021/09/15 03:32:00;;;;;;;4.68;3.00;;;;;;;21.53;64.96;100932.38;5078542;28;20023;-57
2021/09/15 03:34:25;;;;;;;4.78;2.95;;;;;;;21.53;64.90;100932.38;5083157;28;20077;-56
2021/09/15 03:36:52;;;;;;;5.50;2.85;;;;;;;21.52;64.70;100928.81;5077418;28;20537;-57
2021/09/15 03:39:17;;;;;;;5.07;2.97;;;;;;;21.52;65.09;100928.81;5082075;28;20031;-57
2021/09/15 03:41:43;;;;;;;4.70;2.40;;;;;;;21.52;65.07;100933.47;5084214;28;20395;-57
2021/09/15 03:44:09;;;;;;;5.35;3.13;;;;;;;21.51;64.66;100938.09;5078587;28;20032;-57
2021/09/15 03:46:34;;;;;;;5.53;3.10;;;;;;;21.52;65.05;100936.19;5079430;28;20028;-57
2021/09/15 03:49:00;;;;;;;6.03;2.70;;;;;;;21.52;65.02;100941.66;5079554;28;20478;-57
2021/09/15 03:51:26;;;;;;;6.20;2.63;;;;;;;21.52;64.64;100947.16;5079031;28;20115;-57
2021/09/15 03:53:52;;;;;;;5.63;3.28;;;;;;;21.53;65.06;100946.06;5085949;28;20048;-57
2021/09/15 03:56:17;;;;;;;4.43;2.78;;;;;;;21.51;64.95;100940.84;5078998;28;20024;-57
2021/09/15 03:58:43;;;;;;;6.10;2.97;;;;;;;21.52;65.17;100947.16;5083293;28;20039;-56
2021/09/15 04:01:10;;;;;;;7.25;3.15;;;;;;;21.51;64.79;100940.00;5080221;28;20938;-58
2021/09/15 04:03:37;;;;;;;4.78;2.78;;;;;;;21.51;64.99;100937.25;5083309;28;20031;-57
2021/09/15 04:06:03;;;;;;;4.43;2.60;;;;;;;21.51;64.89;100942.72;5080222;28;20024;-56
2021/09/15 04:08:29;;;;;;;6.28;3.28;;;;;;;21.49;64.67;100940.25;5083128;28;20475;-56
2021/09/15 04:10:55;;;;;;;4.65;2.95;;;;;;;21.49;64.56;100933.97;5077805;28;20047;-58
2021/09/15 04:13:21;;;;;;;6.57;2.90;;;;;;;21.50;64.69;100943.81;5081803;28;20028;-58
2021/09/15 04:15:46;;;;;;;4.93;2.90;;;;;;;21.50;64.83;100935.59;5075449;28;20475;-57
2021/09/15 04:18:13;;;;;;;4.63;2.60;;;;;;;21.49;64.59;100934.78;5077665;28;20343;-57
2021/09/15 04:20:40;;;;;;;6.80;2.95;;;;;;;21.50;65.04;100938.34;5079418;28;20028;-58
2021/09/15 04:23:14;;;;;;;7.65;3.33;;;;;;;21.49;64.89;100934.78;5079299;28;20016;-57
2021/09/15 04:31:22;;;;;;;5.35;3.13;;;;;;;21.48;64.66;100929.53;5072319;28;20067;-57
2021/09/15 04:33:47;;;;;;;4.63;2.90;;;;;;;21.48;64.66;100926.81;5081721;28;20639;-57
2021/09/15 04:36:13;;;;;;;4.07;2.70;;;;;;;21.49;64.40;100928.50;5085139;28;20065;-58
2021/09/15 04:38:39;;;;;;;5.03;2.83;;;;;;;21.49;64.34;100936.69;5079530;28;20059;-57
2021/09/15 04:41:05;;;;;;;6.88;3.28;;;;;;;21.47;64.42;100934.19;5078303;28;20359;-58
2021/09/15 04:43:31;;;;;;;5.28;2.60;;;;;;;21.48;64.47;100935.84;5078040;28;20082;-57
2021/09/15 04:45:57;;;;;;;5.57;2.97;;;;;;;21.48;63.91;100933.09;5085668;28;20105;-57
2021/09/15 04:48:23;;;;;;;4.15;2.90;;;;;;;21.48;63.86;100938.56;5077518;28;20476;-57
2021/09/15 04:50:48;;;;;;;4.72;3.13;;;;;;;21.49;64.00;100939.44;5087269;28;20059;-57
2021/09/15 04:53:14;;;;;;;4.80;2.22;;;;;;;21.48;63.81;100943.22;5074004;28;20017;-57
2021/09/15 04:55:40;;;;;;;4.40;2.88;;;;;;;21.49;64.15;100945.72;5084905;28;20042;-57
2021/09/15 04:58:05;;;;;;;5.07;2.65;;;;;;;21.48;64.09;100943.22;5083581;28;20468;-56
2021/09/15 05:00:32;;;;;;;5.53;3.10;;;;;;;21.49;64.02;100948.47;5086865;28;20485;-57
2021/09/15 05:02:58;;;;;;;5.72;2.80;;;;;;;21.48;63.90;100944.03;5082071;28;20015;-57
2021/09/15 05:05:24;;;;;;;5.63;2.85;;;;;;;21.50;64.18;100943.81;5085499;28;20028;-57
2021/09/15 05:07:49;;;;;;;4.28;2.60;;;;;;;21.50;63.75;100952.03;5079557;28;20044;-57
2021/09/15 05:10:15;;;;;;;7.32;2.88;;;;;;;21.49;64.17;100947.63;5089345;28;20020;-57
2021/09/15 05:12:41;;;;;;;5.60;2.80;;;;;;;21.48;63.73;100944.03;5085107;28;20017;-57
2021/09/15 05:15:08;;;;;;;3.92;2.53;;;;;;;21.50;63.98;100946.53;5083282;28;20024;-57
2021/09/15 05:17:33;;;;;;;3.33;2.47;;;;;;;21.48;63.98;100944.03;5083565;28;20043;-57
2021/09/15 05:19:59;;;;;;;5.82;2.85;;;;;;;21.49;63.79;100944.91;5080340;28;20479;-58
2021/09/15 05:22:25;;;;;;;5.70;2.85;;;;;;;21.48;63.71;100935.84;5081811;28;20029;-56
2021/09/15 05:24:50;;;;;;;4.63;2.58;;;;;;;21.48;63.76;100944.03;5087656;28;20027;-57
2021/09/15 05:27:16;;;;;;;5.13;2.63;;;;;;;21.49;63.68;100943.00;5082298;28;20069;-57
2021/09/15 05:29:41;;;;;;;5.85;3.05;;;;;;;21.49;63.70;100951.19;5087406;28;20412;-57
2021/09/15 05:32:08;;;;;;;3.40;2.40;;;;;;;21.49;63.48;100951.19;5083312;28;20028;-57
2021/09/15 05:34:33;;;;;;;5.10;2.92;;;;;;;21.48;63.89;100944.03;5085556;28;20119;-57
2021/09/15 05:36:59;;;;;;;4.85;2.90;;;;;;;21.50;63.83;100949.28;5079243;28;20523;-57
2021/09/15 05:39:25;;;;;;;3.50;2.53;;;;;;;21.48;63.33;100949.50;5084015;28;20016;-57
2021/09/15 05:41:50;;;;;;;3.08;2.17;;;;;;;21.48;63.55;100954.97;5086138;28;20016;-57
2021/09/15 05:44:16;;;;;;;6.15;2.97;;;;;;;21.46;63.20;100951.69;5088726;28;20032;-57
2021/09/15 05:46:42;;;;;;;4.45;2.60;;;;;;;21.49;63.64;100973.09;5084259;28;20043;-55
2021/09/15 05:49:08;;;;;;;5.40;2.60;;;;;;;21.49;63.20;100959.41;5081947;28;20074;-57
2021/09/15 05:51:33;;;;;;;5.13;2.63;;;;;;;21.49;63.53;100967.63;5080938;28;20078;-58
2021/09/15 05:53:59;;;;;;;6.18;2.85;;;;;;;21.49;63.33;100966.78;5081215;28;20059;-57
2021/09/15 05:56:25;;;;;;;3.85;2.58;;;;;;;21.48;63.12;100963.19;5080566;28;20028;-56
2021/09/15 05:58:51;;;;;;;4.43;2.58;;;;;;;21.49;63.19;100964.06;5086540;28;20027;-56
2021/09/15 06:01:17;;;;;;;4.47;2.42;;;;;;;21.48;63.34;100965.09;5072689;28;20037;-56
2021/09/15 06:03:42;;;;;;;4.97;2.67;;;;;;;21.50;63.29;100969.25;5084203;28;20020;-57
2021/09/15 06:06:08;;;;;;;5.97;2.60;;;;;;;21.49;63.64;100975.00;5082185;28;20019;-58
2021/09/15 06:08:34;;;;;;;4.43;2.78;;;;;;;21.49;63.61;100975.81;5085328;28;20024;-57
2021/09/15 06:10:59;;;;;;;3.92;2.67;;;;;;;21.50;63.29;100976.66;5078581;28;20020;-58
2021/09/15 06:13:25;;;;;;;4.07;2.47;;;;;;;21.50;63.53;100980.19;5084277;28;20032;-57
2021/09/15 06:15:51;;;;;;;4.63;2.50;;;;;;;21.49;63.15;100978.56;5085009;28;20392;-58
2021/09/15 06:18:16;;;;;;;4.32;2.60;;;;;;;21.50;63.13;100979.38;5088372;28;20083;-57
2021/09/15 06:20:42;;;;;;;3.70;2.13;;;;;;;21.48;63.20;100982.34;5082908;28;20031;-57
2021/09/15 06:23:10;;;;;;;4.72;2.40;;;;;;;21.50;63.39;100980.19;5081520;28;20470;-58
2021/09/15 06:25:36;;;;;;;4.78;2.42;;;;;;;21.49;63.06;100973.09;5085206;28;20031;-57
2021/09/15 06:28:02;;;;;;;4.63;2.60;;;;;;;21.48;63.24;100974.13;5073152;28;20510;-57
2021/09/15 06:30:28;;;;;;;8.30;2.60;;;;;;;21.48;63.01;100984.25;5079537;28;20135;-55
2021/09/15 06:32:54;;;;;;;3.55;2.50;;;;;;;21.49;63.05;100986.75;5087459;28;20111;-55
2021/09/15 06:35:19;;;;;;;3.42;2.20;;;;;;;21.50;62.88;100987.59;5072364;28;20127;-57
2021/09/15 06:37:45;;;;;;;4.68;2.53;;;;;;;21.50;63.34;100987.59;5083936;28;20027;-57
2021/09/15 06:40:11;;;;;;;3.72;2.42;;;;;;;21.50;63.02;100990.31;5078746;28;20024;-57
2021/09/15 06:42:37;;;;;;;4.93;2.25;;;;;;;21.51;63.17;100994.72;5082741;28;20060;-57
2021/09/15 06:45:04;;;;;;;4.20;2.15;;;;;;;21.50;62.98;100991.16;5081214;28;20024;-58
2021/09/15 06:47:29;;;;;;;4.93;2.50;;;;;;;21.50;62.92;100991.16;5084791;28;20090;-56
2021/09/15 06:49:55;;;;;;;4.25;2.47;;;;;;;21.51;62.98;100991.97;5079282;28;20020;-57
2021/09/15 06:52:21;;;;;;;5.90;2.60;;;;;;;21.51;63.10;100998.31;5082757;28;20059;-58
2021/09/15 06:54:49;;;;;;;4.15;2.60;;;;;;;21.51;62.99;100997.44;5076858;28;20072;-58
2021/09/15 06:57:15;;;;;;;4.00;2.28;;;;;;;21.50;62.58;101002.09;5082398;28;20016;-57
2021/09/15 06:59:41;;;;;;;3.38;2.33;;;;;;;21.51;63.01;100997.44;5082954;28;20028;-58
2021/09/15 07:02:07;;;;;;;3.28;2.47;;;;;;;21.52;62.88;101010.06;5080444;28;20024;-57
2021/09/15 07:04:32;;;;;;;3.72;2.20;;;;;;;21.52;63.04;101012.81;5083917;28;20035;-57
2021/09/15 07:06:59;;;;;;;5.30;2.60;;;;;;;21.52;62.93;101023.75;5088161;28;20016;-56
2021/09/15 07:09:24;;;;;;;3.45;2.13;;;;;;;21.53;62.69;101022.66;5072921;28;20024;-57
2021/09/15 07:11:50;;;;;;;6.50;2.45;;;;;;;21.53;62.51;101025.41;5084876;28;20055;-57
2021/09/15 07:14:15;;;;;;;3.53;2.17;;;;;;;21.54;62.68;101023.50;5079090;28;20027;-57
2021/09/15 07:16:41;;;;;;;8.90;2.90;;;;;;;21.57;62.73;101031.25;5083882;28;20088;-57
2021/09/15 07:19:09;;;;;;;4.68;2.40;;;;;;;21.58;62.72;101022.78;5082310;28;20023;-57
2021/09/15 07:21:35;;;;;;;3.58;2.22;;;;;;;21.60;62.33;101028.84;5084477;28;20102;-57
2021/09/15 07:24:01;;;;;;;3.67;2.17;;;;;;;21.59;62.48;101029.06;5079911;28;20043;-57
2021/09/15 07:26:26;;;;;;;5.22;2.50;;;;;;;21.62;62.21;101029.44;5079974;28;20399;-58
2021/09/15 07:28:53;;;;;;;6.68;2.42;;;;;;;21.63;62.51;101020.13;5075792;28;20024;-57
2021/09/15 07:31:19;;;;;;;3.58;2.33;;;;;;;21.66;62.28;101025.13;5082481;28;20063;-56
2021/09/15 07:33:44;;;;;;;5.53;2.60;;;;;;;21.68;62.33;101028.44;5083908;28;20055;-57
2021/09/15 07:36:10;;;;;;;2.95;2.60;;;;;;;21.70;62.25;101034.53;5078491;28;20027;-58
2021/09/15 07:38:36;;;;;;;5.88;2.58;;;;;;;21.70;62.13;101030.97;5081343;28;20055;-57
2021/09/15 07:41:02;;;;;;;5.03;2.60;;;;;;;21.72;62.16;101028.78;5085386;28;20024;-57
2021/09/15 07:43:27;;;;;;;4.95;2.65;;;;;;;21.71;61.83;101021.66;5082010;28;20060;-57
2021/09/15 07:45:55;;;;;;;3.80;2.33;;;;;;;21.70;61.88;101025.47;5077856;28;20032;-57
2021/09/15 07:48:21;;;;;;;4.75;2.17;;;;;;;21.71;62.10;101018.94;5084784;28;20058;-57
2021/09/15 07:50:48;;;;;;;4.45;2.10;;;;;;;21.71;61.66;101027.13;5075232;28;20074;-57
2021/09/15 07:53:14;;;;;;;4.85;2.45;;;;;;;21.71;61.96;101033.44;5081100;28;20020;-57
2021/09/15 07:55:40;;;;;;;3.90;2.53;;;;;;;21.73;61.78;101027.72;5082079;28;20036;-57
2021/09/15 07:58:05;;;;;;;4.32;2.65;;;;;;;21.76;62.02;101027.25;5080017;28;20020;-56
2021/09/15 08:00:31;;;;;;;4.25;2.42;;;;;;;21.78;61.79;101035.19;5073017;28;20025;-57
2021/09/15 08:02:56;;;;;;;4.45;2.25;;;;;;;21.79;61.99;101034.13;5086678;28;20023;-57
2021/09/15 08:05:22;;;;;;;3.75;2.20;;;;;;;21.80;61.88;101042.09;5077161;28;20038;-57
2021/09/15 08:07:49;;;;;;;4.38;2.67;;;;;;;21.80;61.58;101049.47;5085578;28;20398;-57
2021/09/15 08:10:14;;;;;;;4.22;2.50;;;;;;;21.79;61.68;101048.66;5076921;28;20021;-58
2021/09/15 08:12:40;;;;;;;3.63;2.47;;;;;;;21.79;61.70;101043.16;5082087;28;20039;-57
2021/09/15 08:15:06;;;;;;;4.05;2.17;;;;;;;21.79;61.90;101040.44;5080915;28;20024;-54
2021/09/15 08:17:32;;;;;;;4.15;2.33;;;;;;;21.77;61.70;101045.31;5081065;28;20148;-57
2021/09/15 08:19:58;;;;;;;4.60;2.90;;;;;;;21.78;61.95;101037.94;5078945;28;20107;-58
2021/09/15 08:22:23;;;;;;;5.13;2.65;;;;;;;21.77;61.75;101042.56;5082160;28;20021;-57
2021/09/15 08:24:49;;;;;;;5.47;2.53;;;;;;;21.77;62.23;101037.09;5076538;28;20028;-57
2021/09/15 08:27:14;;;;;;;3.85;2.40;;;;;;;21.76;61.88;101040.94;5075018;28;20020;-57
2021/09/15 08:29:40;;;;;;;3.60;2.40;;;;;;;21.76;62.22;101038.19;5083413;28;20037;-56
2021/09/15 08:32:07;;;;;;;5.22;2.20;;;;;;;21.79;62.21;101043.16;5079995;28;20016;-58
2021/09/15 08:34:33;;;;;;;3.50;1.85;;;;;;;21.80;61.84;101052.22;5080545;28;20020;-57
2021/09/15 08:36:59;;;;;;;2.45;1.90;;;;;;;21.81;61.82;101056.63;5074233;28;20016;-59
2021/09/15 08:39:25;;;;;;;6.10;2.63;;;;;;;21.81;61.82;101053.88;5079549;28;20089;-57
2021/09/15 08:41:52;;;;;;;4.45;2.47;;;;;;;21.81;61.90;101065.66;5080655;28;20040;-57
2021/09/15 08:44:19;;;;;;;6.03;2.53;;;;;;;21.83;62.21;101074.47;5078851;28;20111;-57
2021/09/15 08:46:45;;;;;;;6.68;2.65;;;;;;;21.84;61.89;101078.84;5078837;28;20086;-57
2021/09/15 08:49:11;;;;;;;5.85;2.75;;;;;;;21.85;62.10;101076.94;5085102;28;20084;-56
2021/09/15 08:51:37;;;;;;;3.60;2.63;;;;;;;21.87;62.11;101080.28;5070289;28;20072;-57
2021/09/15 08:54:03;;;;;;;3.80;2.15;;;;;;;21.90;62.09;101077.88;5084574;28;20515;-56
2021/09/15 08:56:29;;;;;;;4.28;2.70;;;;;;;21.92;61.76;101094.06;5075303;28;20051;-57
2021/09/15 08:58:54;;;;;;;4.22;2.75;;;;;;;21.93;61.74;101092.97;5082675;28;20115;-58
2021/09/15 09:01:23;;;;;;;5.55;2.72;;;;;;;21.93;61.53;101091.06;5080218;28;20074;-57
2021/09/15 09:03:56;;;;;;;5.38;2.72;;;;;;;21.93;61.65;101090.25;5082189;28;20024;-57
2021/09/15 09:06:26;;;;;;;3.53;2.37;;;;;;;21.93;61.57;101098.47;5078384;28;20024;-58
2021/09/15 09:09:00;;;;;;;4.97;2.63;;;;;;;21.93;61.51;101102.03;5077384;28;20614;-58
2021/09/15 09:11:29;;;;;;;3.92;2.50;;;;;;;21.92;61.57;101103.13;5079151;28;20031;-57
2021/09/15 09:14:00;;;;;;;5.07;2.50;;;;;;;21.93;61.65;101098.47;5080004;28;20983;-57
2021/09/15 09:16:50;;;;;;;4.95;2.47;;;;;;;21.95;61.94;101105.34;5082622;28;20020;-58
2021/09/15 09:19:18;;;;;;;4.05;2.40;;;;;;;21.94;61.58;101100.97;5078921;28;20409;-57
2021/09/15 09:21:51;;;;;;;4.85;2.80;;;;;;;21.96;61.55;101100.72;5079896;28;20115;-58
2021/09/15 09:24:22;;;;;;;4.90;2.60;;;;;;;21.97;61.97;101109.78;5074330;28;20029;-58
2021/09/15 09:26:52;;;;;;;3.17;2.28;;;;;;;21.96;61.64;101114.41;5077680;28;20554;-57
2021/09/15 09:29:22;;;;;;;5.72;2.88;;;;;;;21.97;61.91;101115.25;5082129;28;20050;-57
2021/09/15 09:31:58;;;;;;;5.30;2.60;;;;;;;21.97;61.87;101120.72;5076251;28;20082;-58
2021/09/15 09:34:25;;;;;;;4.18;2.28;;;;;;;21.97;61.48;101120.72;5084547;28;20486;-56
2021/09/15 09:37:02;;;;;;;4.30;2.50;;;;;;;21.97;61.43;101128.94;5081859;28;20056;-58
2021/09/15 09:39:39;;;;;;;4.70;2.88;;;;;;;21.97;61.38;101120.72;5083721;28;20031;-57
2021/09/15 09:42:23;;;;;;;5.18;2.72;;;;;;;21.96;61.48;101117.13;5079610;28;20086;-58
2021/09/15 09:44:51;;;;;;;4.88;3.05;;;;;;;21.95;61.62;101123.69;5082694;28;20024;-57
2021/09/15 09:47:19;;;;;;;4.30;2.75;;;;;;;21.95;61.83;101123.69;5086848;28;20099;-56
2021/09/15 09:50:19;;;;;;;4.15;2.72;;;;;;;21.95;61.42;101118.22;5079979;28;20036;-57
2021/09/15 09:52:54;;;;;;;4.80;2.80;;;;;;;21.95;61.39;101113.56;5049475;28;20510;-57
2021/09/15 09:55:20;;;;;;;4.32;3.05;;;;;;;21.95;61.76;101118.22;5088438;28;20417;-57
2021/09/15 09:57:51;;;;;;;4.75;2.88;;;;;;;21.94;61.74;101114.66;5081595;28;20023;-57
2021/09/15 10:00:19;;;;;;;4.43;2.50;;;;;;;21.92;61.65;101103.13;5087273;28;20051;-58
2021/09/15 10:02:46;;;;;;;6.80;3.10;;;;;;;21.94;61.38;101111.91;5080359;28;20058;-57
2021/09/15 10:05:17;;;;;;;5.68;2.65;;;;;;;21.94;61.79;101116.56;5081095;28;20028;-58
2021/09/15 10:07:43;;;;;;;5.82;3.03;;;;;;;21.94;61.31;101116.56;5072497;28;20079;-58
2021/09/15 10:10:17;;;;;;;3.97;2.80;;;;;;;21.94;61.79;101127.53;5083100;28;20029;-57
2021/09/15 10:12:45;;;;;;;4.65;3.10;;;;;;;21.95;61.51;101126.44;5086154;28;20024;-57
2021/09/15 10:15:11;;;;;;;4.78;3.10;;;;;;;21.93;61.80;101121.19;5083314;28;20037;-58
2021/09/15 10:17:39;;;;;;;4.15;2.70;;;;;;;21.93;61.60;101125.84;5087013;28;20028;-57
2021/09/15 10:20:10;;;;;;;5.75;3.05;;;;;;;21.94;61.66;101130.25;5082864;28;20020;-58
2021/09/15 10:22:48;;;;;;;5.40;3.00;;;;;;;21.93;61.47;101134.06;5084482;28;20418;-58
2021/09/15 10:25:14;;;;;;;5.47;2.83;;;;;;;21.92;61.52;101130.50;5081001;28;20016;-58
2021/09/15 10:28:04;;;;;;;5.20;2.83;;;;;;;21.93;61.75;101129.41;5083664;28;20215;-57
2021/09/15 10:30:40;;;;;;;4.65;3.15;;;;;;;21.93;61.44;101128.56;5081956;28;20055;-58
2021/09/15 10:33:06;;;;;;;7.25;3.13;;;;;;;21.92;61.38;101135.13;5080436;28;20024;-55
2021/09/15 10:35:45;;;;;;;5.22;3.10;;;;;;;21.93;61.57;101131.31;5085270;28;20027;-57
2021/09/15 10:38:11;;;;;;;6.43;2.80;;;;;;;21.93;61.52;101131.31;5080407;28;20474;-55
2021/09/15 10:40:38;;;;;;;4.70;2.85;;;;;;;21.92;61.39;101125.00;5082826;28;20035;-57
2021/09/15 10:43:05;;;;;;;5.63;3.08;;;;;;;21.93;61.83;101126.66;5076729;28;20363;-57
2021/09/15 10:45:31;;;;;;;5.60;2.75;;;;;;;21.93;61.51;101112.97;5080698;28;20078;-57
2021/09/15 10:48:20;;;;;;;4.10;2.85;;;;;;;21.93;61.67;101123.94;5084232;28;20020;-57
2021/09/15 10:50:45;;;;;;;3.78;2.80;;;;;;;21.94;61.59;101122.88;5084082;28;20075;-57
2021/09/15 10:53:12;;;;;;;5.43;3.00;;;;;;;21.94;61.59;101120.13;5083579;28;20375;-58
2021/09/15 10:55:49;;;;;;;5.40;2.70;;;;;;;21.95;61.32;101124.53;5084366;28;20038;-57
2021/09/15 10:58:25;;;;;;;5.57;3.13;;;;;;;21.96;61.48;101114.41;5081584;28;20020;-57
2021/09/15 11:00:56;;;;;;;4.20;2.97;;;;;;;21.97;61.26;101116.09;5082080;28;20119;-57
2021/09/15 11:03:24;;;;;;;4.97;2.97;;;;;;;21.99;61.68;101113.09;5079476;28;20073;-57
2021/09/15 11:05:50;;;;;;;5.80;2.90;;;;;;;22.00;61.44;101121.06;5081290;28;20107;-57
2021/09/15 11:08:38;;;;;;;4.30;2.63;;;;;;;22.01;61.51;101121.88;5081186;28;20013;-57
2021/09/15 11:11:20;;;;;;;5.43;3.00;;;;;;;22.01;61.51;101122.72;5072924;28;20106;-57
2021/09/15 11:13:59;;;;;;;6.60;2.92;;;;;;;22.02;61.39;101123.56;5081611;28;20106;-57
2021/09/15 11:16:30;;;;;;;4.88;2.90;;;;;;;22.03;61.15;101114.28;5077329;28;20024;-58
2021/09/15 11:19:02;;;;;;;5.68;3.40;;;;;;;22.06;61.27;101111.88;5081506;28;20046;-57
2021/09/15 11:21:30;;;;;;;4.43;2.90;;;;;;;22.06;61.19;101108.31;5083767;28;20074;-57
2021/09/15 11:24:12;;;;;;;4.53;2.90;;;;;;;22.08;61.43;101111.63;5085856;28;20073;-57
2021/09/15 11:26:51;;;;;;;5.25;3.08;;;;;;;22.08;61.18;101100.69;5080658;28;20050;-57
2021/09/15 11:29:37;;;;;;;6.50;3.67;;;;;;;22.09;61.28;101111.38;5078714;28;20036;-57
2021/09/15 11:32:04;;;;;;;5.75;3.00;;;;;;;22.14;61.50;101106.00;5073313;28;20036;-58